Time;durP1;ratioP1;P1;durP2;ratioP2;P2;SDS_P1;SDS_P2;PMS_P1;PMS_P2;Temp;Humidity;BMP_temperature;BMP_pressure;BME280_temperature;BME280_humidity;BME280_pressure;Samples;Min_cycle;Max_cycle;Signal;HPM_P1;HPM_P2
2023/06/26 00:02:49;;;;;;;15.65;5.60;;;;;;;20.88;84.39;99620.25;10500567;28;20051;-69
2023/06/26 00:07:50;;;;;;;17.02;5.70;;;;;;;20.36;84.17;99547.88;10475736;28;20037;-69
2023/06/26 00:12:51;;;;;;;21.20;5.50;;;;;;;20.40;84.13;99560.63;10459837;28;20135;-69
2023/06/26 00:17:52;;;;;;;18.70;5.30;;;;;;;20.57;84.60;99603.72;10457905;28;20091;-69
2023/06/26 00:22:53;;;;;;;12.88;5.63;;;;;;;20.40;85.10;99587.59;10458337;28;20091;-69
2023/06/26 00:27:54;;;;;;;14.60;5.93;;;;;;;20.56;85.74;99609.41;10458312;28;20037;-69
2023/06/26 00:32:55;;;;;;;13.10;5.50;;;;;;;20.60;85.45;99614.03;10458226;28;20045;-70
2023/06/26 00:37:55;;;;;;;24.75;5.45;;;;;;;20.58;85.67;99610.78;10458617;28;20029;-69
2023/06/26 00:42:56;;;;;;;13.02;5.18;;;;;;;20.47;86.00;99592.78;10457568;28;20094;-69
2023/06/26 00:47:57;;;;;;;25.83;6.32;;;;;;;20.60;86.18;99614.03;10456553;28;20052;-69
2023/06/26 00:53:00;;;;;;;15.65;5.90;;;;;;;20.52;85.96;99596.41;10458052;28;20059;-70
2023/06/26 00:58:01;;;;;;;51.65;8.05;;;;;;;20.45;85.72;99589.53;10456598;28;20517;-70
2023/06/26 01:03:02;;;;;;;43.78;7.82;;;;;;;20.37;85.71;99598.88;10457668;28;20044;-69
2023/06/26 01:08:03;;;;;;;110.88;11.10;;;;;;;19.91;86.17;99541.63;10457158;28;20455;-69
2023/06/26 01:13:05;;;;;;;37.88;7.57;;;;;;;20.06;86.93;99576.06;10456566;28;20128;-69
2023/06/26 01:18:06;;;;;;;21.83;6.40;;;;;;;20.00;86.74;99582.47;10456128;28;20041;-69
2023/06/26 01:23:43;;;;;;;32.97;7.78;;;;;;;20.17;90.48;99599.44;10456943;28;20072;-69
2023/06/26 01:28:45;;;;;;;109.88;11.65;;;;;;;19.73;87.79;99539.22;10456637;28;20072;-70
2023/06/26 01:33:47;;;;;;;44.97;6.40;;;;;;;19.59;87.59;99518.00;10454889;28;20040;-69
2023/06/26 01:38:47;;;;;;;22.77;6.28;;;;;;;20.00;88.00;99590.56;10456144;28;20045;-69
2023/06/26 01:44:06;;;;;;;36.35;6.78;;;;;;;20.08;90.93;99598.22;10455869;28;20052;-69
2023/06/26 01:49:11;;;;;;;38.08;7.53;;;;;;;20.01;88.35;99592.19;10455441;28;20114;-70
2023/06/26 01:54:19;;;;;;;47.00;7.32;;;;;;;19.65;90.47;99535.06;10456092;28;20504;-70
2023/06/26 01:59:21;;;;;;;80.05;8.90;;;;;;;19.91;89.21;99575.88;10455838;28;20040;-70
2023/06/26 02:04:22;;;;;;;32.83;7.63;;;;;;;20.32;88.56;99595.31;10454397;28;20390;-69
2023/06/26 02:09:23;;;;;;;49.33;8.88;;;;;;;20.48;88.04;99592.53;10455026;28;20037;-69
2023/06/26 02:14:24;;;;;;;47.65;8.98;;;;;;;20.69;87.69;99607.09;10455451;28;20041;-69
2023/06/26 02:19:25;;;;;;;49.03;8.30;;;;;;;20.89;87.31;99609.22;10454251;28;20128;-70
2023/06/26 02:24:29;;;;;;;14.45;5.53;;;;;;;20.83;85.21;99510.38;10453868;28;20138;-70
2023/06/26 02:29:30;;;;;;;17.15;5.63;;;;;;;21.86;82.79;99583.03;10454122;28;20102;-70
2023/06/26 02:34:31;;;;;;;17.20;5.40;;;;;;;22.59;79.54;99579.66;10454453;28;20086;-70
2023/06/26 02:39:32;;;;;;;10.13;5.38;;;;;;;23.42;76.04;99590.41;10453742;28;20135;-70
2023/06/26 02:44:33;;;;;;;15.60;5.38;;;;;;;24.22;73.08;99568.03;10454176;28;20041;-70
2023/06/26 02:49:33;;;;;;;10.88;4.75;;;;;;;25.07;69.75;99575.22;10454887;28;20087;-70
2023/06/26 02:54:34;;;;;;;17.10;5.55;;;;;;;25.86;66.73;99569.69;10454040;28;20079;-70
2023/06/26 02:59:35;;;;;;;15.40;5.53;;;;;;;26.29;63.84;99510.66;10454495;28;20044;-70
2023/06/26 03:04:36;;;;;;;14.68;4.95;;;;;;;27.01;61.01;99501.47;10453292;28;20075;-70
2023/06/26 03:09:37;;;;;;;15.45;5.30;;;;;;;27.85;58.63;99561.44;10453941;28;20036;-71
2023/06/26 03:14:37;;;;;;;17.20;5.20;;;;;;;28.03;57.03;99567.94;10453132;28;20036;-71
2023/06/26 03:19:38;;;;;;;13.35;4.45;;;;;;;27.66;56.80;99536.91;10452984;28;20385;-70
2023/06/26 03:24:39;;;;;;;18.95;5.60;;;;;;;27.56;56.77;99541.75;10453395;28;20041;-70
2023/06/26 03:29:40;;;;;;;11.82;4.70;;;;;;;27.97;56.12;99556.28;10453644;28;20033;-70
2023/06/26 03:34:40;;;;;;;12.93;5.18;;;;;;;28.36;55.18;99548.66;10456413;28;20128;-70
2023/06/26 03:39:41;;;;;;;13.10;4.68;;;;;;;29.00;53.54;99544.00;10460224;28;20178;-71
2023/06/26 03:44:42;;;;;;;24.13;5.50;;;;;;;29.99;51.81;99516.56;10460209;28;20048;-70
2023/06/26 03:49:43;;;;;;;24.90;6.05;;;;;;;30.77;49.74;99546.88;10459493;28;20052;-73
2023/06/26 03:54:44;;;;;;;19.00;5.90;;;;;;;30.77;48.98;99510.44;10460515;28;20047;-71
2023/06/26 03:59:44;;;;;;;13.93;4.97;;;;;;;31.50;47.97;99529.72;10459571;28;20456;-71
2023/06/26 04:04:45;;;;;;;20.90;6.25;;;;;;;31.93;46.98;99531.56;10459898;28;20049;-71
2023/06/26 04:09:46;;;;;;;17.83;6.35;;;;;;;32.02;46.75;99491.09;10459070;28;20037;-71
2023/06/26 04:14:47;;;;;;;15.85;5.57;;;;;;;32.76;46.23;99554.81;10463795;28;20037;-69
2023/06/26 04:19:47;;;;;;;14.98;5.82;;;;;;;33.00;45.22;99543.97;10480149;28;20041;-71
2023/06/26 04:24:49;;;;;;;14.95;5.63;;;;;;;32.77;45.19;99529.72;10467080;28;20053;-68
2023/06/26 04:29:50;;;;;;;12.13;5.80;;;;;;;33.15;44.92;99535.09;10457132;28;20056;-71
2023/06/26 04:34:50;;;;;;;20.08;6.82;;;;;;;33.35;44.26;99529.84;10480428;28;20033;-72
2023/06/26 04:39:51;;;;;;;13.45;5.40;;;;;;;33.27;44.12;99509.56;10480311;28;20135;-73
2023/06/26 04:44:52;;;;;;;11.95;5.15;;;;;;;33.46;43.78;99530.25;10469861;28;20123;-70
2023/06/26 04:49:53;;;;;;;12.65;5.20;;;;;;;33.04;44.66;99536.66;10472028;28;20441;-68
2023/06/26 04:54:53;;;;;;;15.63;5.50;;;;;;;32.77;44.46;99526.19;10467038;28;20485;-68
2023/06/26 04:59:54;;;;;;;12.75;5.65;;;;;;;31.84;45.29;99458.22;10456797;28;20037;-68
2023/06/26 05:04:55;;;;;;;12.15;5.65;;;;;;;32.54;45.10;99525.72;10457535;28;20055;-68
2023/06/26 05:09:56;;;;;;;12.45;5.60;;;;;;;32.34;45.42;99524.50;10457234;28;20120;-68
2023/06/26 05:14:56;;;;;;;12.38;5.40;;;;;;;32.05;45.47;99504.97;10456200;28;20044;-68
2023/06/26 05:19:57;;;;;;;13.98;5.53;;;;;;;31.83;46.07;99497.81;10456273;28;20037;-68
2023/06/26 05:25:00;;;;;;;11.35;5.15;;;;;;;30.98;48.04;99459.28;10456749;28;20424;-65
2023/06/26 05:30:02;;;;;;;47.78;6.60;;;;;;;31.12;49.06;99500.25;10456356;28;20067;-65
2023/06/26 05:35:06;;;;;;;15.20;5.63;;;;;;;31.05;48.50;99498.03;10455545;28;20045;-65
2023/06/26 05:40:08;;;;;;;17.02;5.32;;;;;;;31.03;48.05;99500.28;10455898;28;20084;-65
2023/06/26 05:45:10;;;;;;;15.88;5.50;;;;;;;31.23;47.75;99496.06;10455256;28;20041;-65
2023/06/26 05:50:11;;;;;;;13.23;5.90;;;;;;;31.08;48.23;99491.06;10454947;28;20049;-66
2023/06/26 05:55:13;;;;;;;9.93;6.65;;;;;;;30.92;48.32;99483.34;10455180;28;20068;-66
2023/06/26 06:00:14;;;;;;;13.45;5.40;;;;;;;31.05;47.54;99462.38;10455269;28;20500;-68
2023/06/26 06:05:15;;;;;;;15.48;5.55;;;;;;;30.97;46.86;99418.50;10455536;28;20044;-68
2023/06/26 06:10:16;;;;;;;16.75;5.68;;;;;;;31.23;47.20;99407.44;10455029;28;20037;-68
2023/06/26 06:15:17;;;;;;;11.30;5.65;;;;;;;31.83;46.12;99472.28;10459699;28;20544;-67
2023/06/26 06:20:21;;;;;;;16.65;5.72;;;;;;;32.05;45.89;99480.25;10497423;28;20072;-68
2023/06/26 06:25:21;;;;;;;15.18;5.40;;;;;;;31.52;44.82;99406.69;10495977;28;20044;-67
2023/06/26 06:30:22;;;;;;;7.10;4.80;;;;;;;31.94;44.40;99457.03;10496456;28;20400;-68
2023/06/26 06:35:23;;;;;;;11.25;5.38;;;;;;;32.14;44.56;99460.16;10484130;28;20048;-68
2023/06/26 06:40:25;;;;;;;13.48;5.28;;;;;;;32.26;44.31;99458.28;10454514;28;20163;-68
2023/06/26 06:45:26;;;;;;;9.43;5.05;;;;;;;32.33;43.60;99451.44;10453860;28;20047;-68
2023/06/26 06:50:27;;;;;;;20.30;5.50;;;;;;;32.42;43.42;99446.69;10452973;28;20053;-67
2023/06/26 06:55:28;;;;;;;8.15;5.25;;;;;;;32.50;42.85;99445.84;10454630;28;20400;-67
2023/06/26 07:00:28;;;;;;;24.20;5.88;;;;;;;32.37;43.22;99442.22;10453932;28;20045;-68
2023/06/26 07:05:29;;;;;;;18.73;6.10;;;;;;;32.65;43.07;99425.19;10470541;28;20082;-68
2023/06/26 07:10:31;;;;;;;9.43;5.47;;;;;;;33.10;41.45;99440.94;10470077;28;20032;-68
2023/06/26 07:15:32;;;;;;;21.07;5.47;;;;;;;33.24;41.13;99415.84;10482604;28;20037;-68
2023/06/26 07:20:32;;;;;;;14.13;5.45;;;;;;;32.97;40.76;99346.53;10481268;28;20041;-68
2023/06/26 07:25:33;;;;;;;8.18;4.50;;;;;;;33.71;41.28;99398.91;10485515;28;20129;-68
2023/06/26 07:30:34;;;;;;;13.07;5.50;;;;;;;33.70;39.57;99350.47;10488190;28;20114;-68
2023/06/26 07:35:34;;;;;;;7.85;5.10;;;;;;;34.07;40.41;99401.63;10481805;28;20090;-67
2023/06/26 07:40:35;;;;;;;9.68;4.93;;;;;;;33.90;38.99;99392.81;10488413;28;20044;-67
2023/06/26 07:45:36;;;;;;;7.78;4.55;;;;;;;34.08;37.58;99394.97;10477896;28;20469;-68
2023/06/26 07:50:37;;;;;;;28.70;5.40;;;;;;;34.53;38.66;99385.59;10459375;28;20091;-68
2023/06/26 07:55:38;;;;;;;10.05;5.15;;;;;;;34.33;37.10;99378.34;10460243;28;20567;-68
2023/06/26 08:00:38;;;;;;;43.72;6.20;;;;;;;34.33;37.47;99364.56;10486490;28;20044;-68
2023/06/26 08:05:39;;;;;;;7.15;4.45;;;;;;;34.02;36.83;99299.09;10479561;28;20044;-68
2023/06/26 08:10:40;;;;;;;9.48;4.30;;;;;;;34.53;36.01;99363.53;10491297;28;20112;-68
2023/06/26 08:15:41;;;;;;;18.48;5.47;;;;;;;34.67;36.30;99343.88;10482025;28;20036;-68
2023/06/26 08:20:41;;;;;;;31.40;6.68;;;;;;;35.06;36.77;99362.59;10483970;28;20032;-68
2023/06/26 08:25:43;;;;;;;10.48;4.68;;;;;;;35.06;36.08;99357.88;10483861;28;20484;-68
2023/06/26 08:30:43;;;;;;;15.70;4.93;;;;;;;35.20;35.87;99341.66;10478015;28;20079;-68
2023/06/26 08:35:44;;;;;;;14.13;4.90;;;;;;;35.31;35.51;99339.16;10477943;28;20044;-67
2023/06/26 08:40:45;;;;;;;14.90;4.95;;;;;;;34.57;34.78;99277.38;10477081;28;20090;-67
2023/06/26 08:45:48;;;;;;;30.30;5.72;;;;;;;34.81;35.56;99324.09;10487368;28;20044;-67
2023/06/26 08:50:51;;;;;;;10.52;4.90;;;;;;;34.75;34.25;99284.16;10476655;28;20060;-68
2023/06/26 08:55:53;;;;;;;12.85;5.35;;;;;;;35.44;33.69;99326.84;10478283;28;20068;-67
2023/06/26 09:00:55;;;;;;;12.27;4.68;;;;;;;35.32;33.17;99321.44;10480972;28;20036;-68
2023/06/26 09:05:56;;;;;;;10.52;4.30;;;;;;;35.00;33.80;99309.59;10479698;28;20080;-67
2023/06/26 09:10:57;;;;;;;23.65;5.80;;;;;;;34.46;34.72;99315.66;10477649;28;20064;-68
2023/06/26 09:15:58;;;;;;;7.82;4.70;;;;;;;34.50;33.68;99287.03;10489202;28;20574;-68
2023/06/26 09:20:59;;;;;;;14.18;5.38;;;;;;;35.04;33.24;99296.72;10480261;28;20393;-68
2023/06/26 09:26:02;;;;;;;13.93;4.85;;;;;;;35.30;33.97;99278.75;10474541;28;20052;-67
2023/06/26 09:31:05;;;;;;;11.93;5.13;;;;;;;35.69;33.23;99287.97;10475067;28;20068;-68
2023/06/26 09:36:19;;;;;;;9.77;4.65;;;;;;;35.73;32.47;99285.28;10482366;28;20032;-68
2023/06/26 09:41:20;;;;;;;17.83;4.70;;;;;;;35.80;33.01;99275.16;10479769;28;20475;-67
2023/06/26 09:46:26;;;;;;;10.47;4.43;;;;;;;35.90;33.87;99251.69;10483639;28;20039;-68
2023/06/26 09:51:30;;;;;;;11.25;4.57;;;;;;;35.56;31.62;99211.91;10478140;28;20181;-68
2023/06/26 09:56:32;;;;;;;19.02;5.00;;;;;;;35.53;31.94;99229.97;10489158;28;20071;-68
2023/06/26 10:01:37;;;;;;;9.55;4.30;;;;;;;35.80;32.49;99227.38;10495916;28;20124;-67
2023/06/26 10:06:52;;;;;;;16.05;4.57;;;;;;;36.06;31.47;99259.91;10495959;28;20119;-68
2023/06/26 10:12:05;;;;;;;12.13;4.65;;;;;;;36.01;30.04;99246.34;10494617;28;20040;-68
2023/06/26 10:17:15;;;;;;;12.13;4.90;;;;;;;35.47;30.77;99200.25;10495062;28;20040;-68
2023/06/26 10:22:18;;;;;;;18.25;5.38;;;;;;;35.88;31.61;99259.53;10495874;28;20048;-68
2023/06/26 10:27:21;;;;;;;15.85;4.72;;;;;;;35.92;31.17;99232.75;10480505;28;20043;-68
2023/06/26 10:32:25;;;;;;;13.48;5.00;;;;;;;35.43;31.32;99192.69;10454407;28;20139;-68
2023/06/26 10:37:45;;;;;;;10.73;4.30;;;;;;;35.56;31.08;99198.91;10453704;28;20047;-68
2023/06/26 10:42:46;;;;;;;15.15;6.10;;;;;;;36.05;30.61;99230.69;10453744;28;20393;-68
2023/06/26 10:47:51;;;;;;;11.68;4.97;;;;;;;35.84;29.70;99157.22;10462607;28;20131;-67
2023/06/26 10:53:10;;;;;;;19.27;5.60;;;;;;;35.63;30.60;99163.16;10462636;28;20052;-68
2023/06/26 10:58:29;;;;;;;19.00;7.47;;;;;;;35.16;31.84;99224.84;10462519;28;20044;-68
2023/06/26 11:03:31;;;;;;;19.77;8.45;;;;;;;34.65;31.83;99221.25;10461575;28;20045;-67
2023/06/26 11:08:54;;;;;;;13.13;5.50;;;;;;;34.87;31.80;99206.78;10473177;28;20041;-68
2023/06/26 11:13:56;;;;;;;15.68;6.45;;;;;;;34.36;32.76;99146.06;10461915;28;20515;-68
2023/06/26 11:18:58;;;;;;;13.20;6.22;;;;;;;34.08;32.60;99148.91;10461365;28;20489;-67
2023/06/26 11:24:02;;;;;;;13.73;5.10;;;;;;;34.84;32.79;99206.72;10482833;28;20068;-68
2023/06/26 11:29:02;;;;;;;14.43;5.63;;;;;;;35.22;32.45;99198.56;10483060;28;20123;-68
2023/06/26 11:34:07;;;;;;;11.10;4.45;;;;;;;35.44;32.22;99169.44;10489419;28;20127;-68
2023/06/26 11:39:08;;;;;;;13.18;5.32;;;;;;;35.56;32.86;99167.72;10482293;28;20091;-68
2023/06/26 11:44:10;;;;;;;13.60;4.57;;;;;;;35.70;31.23;99165.25;10478494;28;20075;-68
2023/06/26 11:49:11;;;;;;;9.70;4.78;;;;;;;35.81;32.00;99165.44;10489451;28;20492;-68
2023/06/26 11:54:14;;;;;;;12.57;4.80;;;;;;;34.90;32.34;99106.75;10478672;28;20040;-69
2023/06/26 11:59:15;;;;;;;10.13;4.55;;;;;;;34.91;32.57;99149.75;10486571;28;20044;-67
2023/06/26 12:04:19;;;;;;;9.68;4.75;;;;;;;34.58;32.26;99138.31;10478863;28;20546;-68
2023/06/26 12:09:21;;;;;;;20.20;5.35;;;;;;;34.40;33.59;99144.19;10486143;28;20553;-68
2023/06/26 12:14:25;;;;;;;9.70;4.90;;;;;;;34.38;33.80;99135.47;10477796;28;20559;-69
2023/06/26 12:19:27;;;;;;;12.50;4.95;;;;;;;34.54;32.90;99107.91;10479443;28;20059;-68
2023/06/26 12:24:27;;;;;;;10.15;4.63;;;;;;;35.30;32.37;99130.50;10479309;28;20048;-69
2023/06/26 12:29:35;;;;;;;12.32;5.15;;;;;;;35.13;31.45;99098.59;10485469;28;20041;-67
2023/06/26 12:34:38;;;;;;;8.82;5.15;;;;;;;34.89;31.61;99118.94;10478086;28;20426;-68
2023/06/26 12:39:59;;;;;;;9.80;4.53;;;;;;;35.40;31.47;99116.09;10483079;28;20660;-68
2023/06/26 12:45:10;;;;;;;12.60;4.78;;;;;;;35.40;31.48;99107.03;10479383;28;20056;-68
2023/06/26 12:50:12;;;;;;;16.63;5.15;;;;;;;34.89;32.00;99110.69;10477512;28;20404;-68
2023/06/26 12:55:13;;;;;;;12.03;4.40;;;;;;;34.39;32.46;99062.63;10486770;28;21234;-71
2023/06/26 13:00:14;;;;;;;13.68;4.28;;;;;;;34.54;32.98;99108.69;10486643;28;20301;-70
2023/06/26 13:05:15;;;;;;;13.57;4.33;;;;;;;34.41;32.90;99104.44;10489219;28;20500;-70
2023/06/26 13:10:16;;;;;;;18.75;5.68;;;;;;;34.43;32.73;99054.44;10495019;28;20041;-69
2023/06/26 13:15:17;;;;;;;9.90;4.80;;;;;;;34.90;32.40;99087.44;10485401;28;20048;-69
2023/06/26 13:20:18;;;;;;;8.55;4.45;;;;;;;34.51;31.89;99020.34;10468647;28;20092;-69
2023/06/26 13:25:19;;;;;;;11.02;4.85;;;;;;;34.50;32.59;99087.72;10456915;28;20048;-68
2023/06/26 13:30:21;;;;;;;6.32;4.32;;;;;;;34.19;32.96;99094.03;10494062;28;20492;-70
2023/06/26 13:35:22;;;;;;;;;;;;;;;34.51;32.93;99081.03;10475127;28;20124;-70
2023/06/26 13:40:23;;;;;;;8.43;4.43;;;;;;;34.23;32.91;99004.00;10467541;28;19921;-70
2023/06/26 13:45:25;;;;;;;18.67;4.60;;;;;;;35.06;32.33;99092.13;10466720;28;20526;-73
2023/06/26 13:50:26;;;;;;;19.50;4.90;;;;;;;34.81;31.83;99003.28;10470835;28;20049;-68
2023/06/26 13:55:26;;;;;;;10.25;4.05;;;;;;;34.88;31.63;99019.97;10479097;28;20505;-70
2023/06/26 14:00:28;;;;;;;12.43;4.53;;;;;;;34.69;32.15;99006.97;10455917;28;20040;-68
2023/06/26 14:05:31;;;;;;;10.20;4.80;;;;;;;34.83;31.93;99069.94;10455173;28;20099;-70
2023/06/26 14:10:33;;;;;;;12.52;4.35;;;;;;;34.46;32.67;99060.06;10459158;28;20077;-69
2023/06/26 14:15:33;;;;;;;;;;;;;;;34.54;32.38;99088.59;10461008;28;20041;-66
2023/06/26 14:20:35;;;;;;;16.05;4.82;;;;;;;33.86;32.99;99084.97;10454842;28;20321;-66
2023/06/26 14:25:36;;;;;;;15.95;5.55;;;;;;;33.33;33.16;99055.97;10454608;28;20135;-69
2023/06/26 14:30:37;;;;;;;9.30;4.78;;;;;;;33.41;33.30;99085.28;10454886;28;20127;-69
2023/06/26 14:35:38;;;;;;;21.63;5.45;;;;;;;33.00;33.42;99034.19;10454419;28;20076;-68
2023/06/26 14:40:39;;;;;;;44.33;25.92;;;;;;;33.12;36.11;99080.94;10453682;28;20045;-67
2023/06/26 14:45:39;;;;;;;72.63;43.60;;;;;;;32.82;38.51;99094.16;10453658;28;20041;-68
2023/06/26 14:50:40;;;;;;;101.70;61.55;;;;;;;32.42;41.50;99089.38;10454776;28;20057;-68
2023/06/26 14:55:41;;;;;;;113.20;60.88;;;;;;;31.91;43.22;99078.69;10454238;28;20072;-67
2023/06/26 15:00:43;;;;;;;89.32;49.55;;;;;;;31.71;43.89;99102.34;10453430;28;20033;-67
2023/06/26 15:05:44;;;;;;;71.30;38.55;;;;;;;31.62;44.36;99104.38;10452494;28;20028;-66
2023/06/26 15:10:45;;;;;;;82.60;35.33;;;;;;;31.50;45.05;99107.03;10452598;28;20162;-67
2023/06/26 15:15:46;;;;;;;79.50;33.17;;;;;;;31.40;45.41;99100.03;10454079;28;20033;-67
2023/06/26 15:20:46;;;;;;;55.00;25.20;;;;;;;31.30;45.67;99100.44;10452979;28;20489;-67
2023/06/26 15:25:47;;;;;;;68.50;28.40;;;;;;;31.13;45.98;99106.84;10452885;28;20412;-66
2023/06/26 15:30:49;;;;;;;62.75;24.10;;;;;;;30.84;46.78;99100.31;10456320;28;20045;-64
2023/06/26 15:35:50;;;;;;;50.50;21.30;;;;;;;30.66;47.35;99101.50;10460262;28;20091;-65
2023/06/26 15:40:51;;;;;;;52.25;20.02;;;;;;;30.42;47.24;99080.22;10460401;28;20075;-67
2023/06/26 15:45:52;;;;;;;83.70;31.50;;;;;;;29.99;47.62;99034.63;10461225;28;20041;-65
2023/06/26 15:50:53;;;;;;;79.50;24.67;;;;;;;30.18;48.26;99116.38;10461096;28;20065;-66
2023/06/26 15:55:54;;;;;;;53.78;18.17;;;;;;;29.96;48.81;99131.13;10459168;28;20063;-69
2023/06/26 16:00:55;;;;;;;81.40;20.38;;;;;;;29.81;49.05;99126.97;10460207;28;20485;-67
2023/06/26 16:05:55;;;;;;;53.65;20.33;;;;;;;29.64;49.49;99127.00;10459185;28;20099;-67
2023/06/26 16:10:57;;;;;;;73.03;24.92;;;;;;;29.51;49.49;99140.50;10458663;28;20040;-66
2023/06/26 16:15:58;;;;;;;81.68;22.20;;;;;;;29.37;50.00;99147.28;10459554;28;20091;-66
2023/06/26 16:20:59;;;;;;;50.17;15.43;;;;;;;29.14;50.48;99136.50;10477889;28;20127;-67
2023/06/26 16:25:59;;;;;;;57.25;15.85;;;;;;;29.03;51.14;99148.88;10499483;28;20135;-66
2023/06/26 17:31:56;;;;;;;24.63;5.35;;;;;;;27.31;58.62;99127.44;10513853;27;1705023;-68
2023/06/26 17:36:57;;;;;;;22.08;5.13;;;;;;;27.03;58.58;99106.78;10531540;28;20044;-67
2023/06/26 17:41:59;;;;;;;30.83;5.68;;;;;;;27.12;59.03;99151.25;10531150;28;20488;-66
2023/06/26 17:47:00;;;;;;;38.15;5.68;;;;;;;27.00;59.02;99151.00;10530531;28;20036;-67
2023/06/26 17:52:00;;;;;;;26.55;4.65;;;;;;;26.56;58.74;99097.97;10531164;28;20048;-66
2023/06/26 17:57:02;;;;;;;25.83;5.50;;;;;;;26.77;59.29;99152.84;10530992;28;20044;-66
2023/06/26 18:02:03;;;;;;;29.83;4.65;;;;;;;26.64;59.40;99173.53;10530191;28;20075;-65
2023/06/26 18:07:04;;;;;;;35.10;4.65;;;;;;;26.53;59.46;99175.63;10530464;28;20491;-67
2023/06/26 18:12:06;;;;;;;37.45;5.30;;;;;;;26.39;59.78;99183.78;10530254;28;20044;-67
2023/06/26 18:17:06;;;;;;;27.95;5.10;;;;;;;25.91;59.57;99110.63;10526162;28;20444;-68
2023/06/26 18:22:07;;;;;;;21.48;4.45;;;;;;;25.90;60.23;99146.28;10490296;28;20037;-66
2023/06/26 18:27:08;;;;;;;20.55;4.57;;;;;;;26.11;60.22;99212.03;10487821;28;20051;-70
2023/06/26 18:32:09;;;;;;;16.00;4.07;;;;;;;25.99;60.46;99196.19;10464996;28;20138;-65
2023/06/26 18:37:10;;;;;;;25.23;4.55;;;;;;;25.48;60.54;99139.88;10458838;28;20126;-66
2023/06/26 18:42:11;;;;;;;14.82;4.50;;;;;;;25.80;61.09;99196.19;10442169;28;20119;-65
2023/06/26 18:47:11;;;;;;;33.50;5.68;;;;;;;25.71;61.40;99195.25;10458990;28;20045;-68
2023/06/26 18:52:12;;;;;;;17.95;5.78;;;;;;;24.93;61.99;99088.75;10459481;28;20047;-70
2023/06/26 18:57:13;;;;;;;29.05;6.43;;;;;;;25.53;62.02;99212.41;10457592;28;20053;-69
2023/06/26 19:02:14;;;;;;;17.35;6.60;;;;;;;25.45;62.70;99195.63;10457605;28;20049;-69
2023/06/26 19:07:14;;;;;;;17.42;7.35;;;;;;;25.27;62.76;99185.56;10457819;28;20068;-69
2023/06/26 19:12:15;;;;;;;29.98;10.40;;;;;;;25.29;63.29;99205.13;10459024;28;20029;-68
2023/06/26 19:17:17;;;;;;;20.30;9.10;;;;;;;25.10;64.26;99174.34;10457680;28;20526;-68
2023/06/26 19:22:18;;;;;;;22.67;8.93;;;;;;;24.90;64.99;99135.50;10456895;28;20041;-72
2023/06/26 19:27:19;;;;;;;23.75;9.82;;;;;;;24.75;65.93;99124.84;10457962;28;20041;-67
2023/06/26 19:32:20;;;;;;;27.30;9.15;;;;;;;24.30;67.09;99051.00;10457069;28;20199;-68
2023/06/26 19:37:20;;;;;;;24.95;8.18;;;;;;;24.46;67.89;99089.63;10456429;28;20049;-69
2023/06/26 19:42:21;;;;;;;23.73;8.55;;;;;;;24.33;68.76;99096.56;10455888;28;20519;-67
2023/06/26 19:47:22;;;;;;;29.73;7.53;;;;;;;23.72;69.52;99030.19;10455586;28;20506;-68
2023/06/26 19:52:23;;;;;;;18.48;5.55;;;;;;;23.87;69.88;99075.31;10456862;28;20053;-72
2023/06/26 19:57:23;;;;;;;12.82;5.53;;;;;;;23.64;70.46;99053.28;10455285;28;20045;-68
2023/06/26 20:02:24;;;;;;;12.77;4.90;;;;;;;23.99;70.90;99097.47;10456097;28;20067;-67
2023/06/26 20:07:25;;;;;;;10.38;3.85;;;;;;;23.95;70.95;99084.75;10456397;28;20048;-68
2023/06/26 20:12:26;;;;;;;15.93;4.00;;;;;;;23.61;71.79;99034.06;10456561;28;20044;-70
2023/06/26 20:17:27;;;;;;;15.15;3.60;;;;;;;23.71;72.82;99073.88;10456308;28;20063;-66
2023/06/26 20:22:27;;;;;;;23.67;3.55;;;;;;;23.65;73.32;99098.28;10455844;28;20044;-67
2023/06/26 20:27:28;;;;;;;14.60;3.03;;;;;;;22.46;73.92;98942.31;10455663;28;20131;-68
2023/06/26 20:32:29;;;;;;;12.52;2.95;;;;;;;23.11;73.99;99072.13;10455827;28;20079;-68
2023/06/26 20:37:30;;;;;;;9.70;3.28;;;;;;;23.50;74.06;99157.22;10455435;28;20076;-70
2023/06/26 20:42:31;;;;;;;6.80;2.40;;;;;;;23.62;74.07;99199.16;10453947;28;20086;-69
2023/06/26 20:47:41;;;;;;;5.97;2.60;;;;;;;23.61;74.48;99218.41;10455706;28;20060;-69
2023/06/26 20:52:43;;;;;;;3.95;2.58;;;;;;;23.11;74.73;99149.88;10454766;28;20037;-69
2023/06/26 20:57:44;;;;;;;5.93;3.13;;;;;;;23.70;74.28;99222.19;10454836;28;20037;-68
2023/06/26 21:02:45;;;;;;;5.70;2.53;;;;;;;23.75;74.42;99221.31;10454666;28;20044;-69
2023/06/26 21:07:45;;;;;;;9.00;2.60;;;;;;;23.65;74.67;99214.84;10453913;28;20072;-68
2023/06/26 21:12:46;;;;;;;5.53;2.78;;;;;;;23.47;75.38;99221.75;10454319;28;20049;-69
2023/06/26 21:17:48;;;;;;;7.78;3.42;;;;;;;23.34;76.50;99235.91;10454259;28;20041;-68
2023/06/26 21:22:49;;;;;;;3.33;2.28;;;;;;;23.19;76.89;99234.09;10454118;28;20123;-68
2023/06/26 21:27:50;;;;;;;4.63;2.80;;;;;;;23.21;77.19;99244.63;10453954;28;20053;-68
2023/06/26 21:32:50;;;;;;;6.07;2.97;;;;;;;23.11;78.68;99260.94;10453508;28;20037;-68
2023/06/26 21:37:51;;;;;;;6.82;3.00;;;;;;;23.00;78.88;99263.72;10454445;28;20043;-67
2023/06/26 21:42:52;;;;;;;7.75;2.80;;;;;;;23.22;78.73;99320.25;10453586;28;20052;-69
2023/06/26 21:47:52;;;;;;;4.10;2.70;;;;;;;23.46;78.50;99342.09;10453819;28;20044;-69
2023/06/26 21:52:53;;;;;;;3.95;2.63;;;;;;;23.51;77.73;99356.72;10453639;28;20041;-69
2023/06/26 21:57:54;;;;;;;4.88;2.67;;;;;;;23.58;77.88;99370.78;10452993;28;20373;-69
2023/06/26 22:02:55;;;;;;;8.80;2.95;;;;;;;23.78;77.59;99391.59;10453542;28;20098;-71
2023/06/26 22:07:56;;;;;;;5.88;2.47;;;;;;;23.83;76.92;99378.81;10460487;28;20448;-69
2023/06/26 22:12:57;;;;;;;9.60;2.90;;;;;;;23.91;76.41;99370.13;10461089;28;20040;-69
2023/06/26 22:17:58;;;;;;;5.70;3.40;;;;;;;23.92;75.87;99365.50;10442281;28;20045;-69
2023/06/26 22:22:58;;;;;;;9.68;3.78;;;;;;;23.88;75.66;99365.25;10442698;28;20040;-68
2023/06/26 22:27:59;;;;;;;11.35;4.35;;;;;;;23.67;75.94;99348.25;10442842;28;20053;-68
2023/06/26 22:33:00;;;;;;;7.10;4.50;;;;;;;23.60;76.41;99342.31;10460077;28;20048;-68
2023/06/26 22:38:01;;;;;;;8.55;5.20;;;;;;;23.39;76.95;99328.03;10460181;28;20045;-69
2023/06/26 22:43:06;;;;;;;9.57;5.85;;;;;;;23.29;77.49;99329.97;10460087;28;20124;-68
2023/06/26 22:48:07;;;;;;;8.75;6.50;;;;;;;23.11;77.78;99331.38;10459540;28;20037;-68
2023/06/26 22:53:08;;;;;;;9.80;6.50;;;;;;;22.85;79.04;99312.44;10459469;28;20442;-69
2023/06/26 22:58:08;;;;;;;10.25;7.13;;;;;;;22.56;79.85;99277.84;10459462;28;20041;-68
2023/06/26 23:03:11;;;;;;;10.10;6.18;;;;;;;22.63;80.57;99301.94;10458976;28;20041;-68
2023/06/26 23:08:13;;;;;;;12.00;6.23;;;;;;;22.48;81.36;99291.94;10459660;28;20052;-69
2023/06/26 23:13:14;;;;;;;23.50;5.80;;;;;;;21.94;82.01;99216.72;10458280;28;20492;-68
2023/06/26 23:18:15;;;;;;;9.82;5.20;;;;;;;22.38;82.30;99291.13;10457713;28;20037;-69
2023/06/26 23:23:15;;;;;;;9.00;5.00;;;;;;;22.43;82.12;99296.53;10457758;28;20504;-68
2023/06/26 23:28:16;;;;;;;8.40;5.05;;;;;;;22.32;82.44;99293.84;10457517;28;20504;-68
2023/06/26 23:33:17;;;;;;;7.13;4.57;;;;;;;22.16;82.77;99283.25;10459056;28;20040;-68
2023/06/26 23:38:18;;;;;;;5.55;4.07;;;;;;;22.20;83.04;99304.13;10458080;28;20055;-68
2023/06/26 23:43:19;;;;;;;6.35;3.83;;;;;;;22.05;83.00;99282.44;10457568;28;20046;-68
2023/06/26 23:48:19;;;;;;;8.50;3.70;;;;;;;22.14;83.13;99305.16;10458038;28;20049;-68
2023/06/26 23:53:20;;;;;;;9.50;3.30;;;;;;;21.98;82.99;99290.81;10457109;28;20078;-68
2023/06/26 23:58:21;;;;;;;6.28;3.40;;;;;;;22.15;82.83;99312.19;10456274;28;20045;-68
